createdAt,value
2022-09-16T00:01:31.142Z,99593.07
2022-09-16T00:04:03.527Z,99591.02
2022-09-16T00:06:35.378Z,99593.57
2022-09-16T00:09:07.211Z,99596.48
2022-09-16T00:11:39.040Z,99596.04
2022-09-16T00:14:11.069Z,99600.75
2022-09-16T00:16:43.219Z,99600.86
2022-09-16T00:19:15.456Z,99607.34
2022-09-16T00:21:49.850Z,99610.80
2022-09-16T00:24:21.620Z,99612.45
2022-09-16T00:26:53.763Z,99614.14
2022-09-16T00:29:25.688Z,99616.17
2022-09-16T00:31:57.528Z,99612.91
2022-09-16T00:34:29.350Z,99615.64
2022-09-16T00:37:03.370Z,99614.34
2022-09-16T00:39:35.343Z,99610.91
2022-09-16T00:42:07.564Z,99611.01
2022-09-16T00:44:58.620Z,99612.52
2022-09-16T00:47:36.405Z,99615.45
2022-09-16T00:50:12.344Z,99616.58
2022-09-16T00:52:44.533Z,99620.88
2022-09-16T00:55:21.520Z,99622.04
2022-09-16T00:57:55.684Z,99624.77
2022-09-16T01:00:27.601Z,99623.29
2022-09-16T01:02:59.933Z,99626.19
2022-09-16T01:05:32.551Z,99624.50
2022-09-16T01:08:05.520Z,99624.98
2022-09-16T01:10:37.342Z,99618.57
2022-09-16T01:13:12.814Z,99617.64
2022-09-16T01:15:53.038Z,99612.98
2022-09-16T01:18:32.651Z,99614.82
2022-09-16T01:21:19.440Z,99620.73
2022-09-16T01:24:35.526Z,99623.83
2022-09-16T01:27:22.281Z,99623.72
2022-09-16T01:30:17.665Z,99618.51
2022-09-16T01:33:01.530Z,99616.71
2022-09-16T01:35:50.097Z,99616.80
2022-09-16T01:38:35.372Z,99616.20
2022-09-16T01:41:15.482Z,99620.36
2022-09-16T01:43:57.357Z,99613.75
2022-09-16T01:46:38.423Z,99616.08
2022-09-16T01:49:19.538Z,99618.63
2022-09-16T01:52:02.041Z,99615.02
2022-09-16T01:54:41.718Z,99614.43
2022-09-16T01:57:17.919Z,99615.61
2022-09-16T01:59:55.416Z,99618.16
2022-09-16T02:02:33.181Z,99615.59
2022-09-16T02:05:09.601Z,99619.61
2022-09-16T02:07:44.898Z,99622.33
2022-09-16T02:10:23.387Z,99620.35
2022-09-16T02:13:04.203Z,99621.16
2022-09-16T02:15:36.784Z,99619.66
2022-09-16T02:18:13.893Z,99621.02
2022-09-16T02:20:49.071Z,99621.80
2022-09-16T02:23:24.797Z,99621.91
2022-09-16T02:25:59.506Z,99618.64
2022-09-16T02:28:35.769Z,99621.90
2022-09-16T02:31:09.973Z,99627.65
2022-09-16T02:33:46.199Z,99628.11
2022-09-16T02:36:21.942Z,99628.40
2022-09-16T02:38:58.499Z,99636.23
2022-09-16T02:41:30.539Z,99632.64
2022-09-16T02:44:02.734Z,99632.21
2022-09-16T02:46:41.249Z,99637.10
2022-09-16T02:49:19.664Z,99637.70
2022-09-16T02:51:59.654Z,99635.54
2022-09-16T02:54:39.640Z,99636.34
2022-09-16T02:57:12.157Z,99644.05
2022-09-16T02:59:44.425Z,99642.20
2022-09-16T03:02:16.466Z,99643.17
2022-09-16T03:04:48.591Z,99645.82
2022-09-16T03:07:20.721Z,99648.42
2022-09-16T03:09:53.359Z,99648.21
2022-09-16T03:12:52.233Z,99650.37
2022-09-16T03:15:56.876Z,99649.93
2022-09-16T03:18:51.923Z,99650.09
2022-09-16T03:21:33.263Z,99652.14
2022-09-16T03:24:11.703Z,99646.95
2022-09-16T03:26:54.201Z,99643.02
2022-09-16T03:29:32.833Z,99645.79
2022-09-16T03:32:15.484Z,99653.33
2022-09-16T03:34:53.271Z,99644.64
2022-09-16T03:37:32.299Z,99640.88
2022-09-16T03:40:11.059Z,99644.76
2022-09-16T03:42:44.650Z,99644.70
2022-09-16T03:45:19.293Z,99650.94
2022-09-16T03:47:53.769Z,99649.27
2022-09-16T03:50:25.613Z,99648.70
2022-09-16T03:52:57.463Z,99651.52
2022-09-16T03:55:29.649Z,99650.17
2022-09-16T03:58:01.495Z,99650.08
2022-09-16T04:00:33.236Z,99653.05
2022-09-16T04:03:05.248Z,99654.45
2022-09-16T04:05:37.128Z,99656.69
2022-09-16T04:08:09.059Z,99656.98
2022-09-16T04:10:41.095Z,99654.12
2022-09-16T04:13:12.976Z,99658.42
2022-09-16T04:15:44.837Z,99659.73
2022-09-16T04:18:16.731Z,99658.77
2022-09-16T04:20:48.567Z,99657.66
2022-09-16T04:23:20.572Z,99657.41
2022-09-16T04:25:57.850Z,99657.86
2022-09-16T04:28:31.469Z,99656.61
2022-09-16T04:31:05.038Z,99660.10
2022-09-16T04:33:38.206Z,99661.98
2022-09-16T04:36:13.289Z,99666.60
2022-09-16T04:38:47.576Z,99664.65
2022-09-16T04:41:21.605Z,99664.43
2022-09-16T04:43:56.574Z,99658.59
2022-09-16T04:46:31.270Z,99662.38
2022-09-16T04:49:03.896Z,99663.55
2022-09-16T04:51:35.721Z,99663.33
2022-09-16T04:54:07.937Z,99661.80
2022-09-16T04:56:39.826Z,99661.11
2022-09-16T04:59:12.635Z,99660.80
2022-09-16T05:01:46.002Z,99661.31
2022-09-16T05:04:17.982Z,99662.19
2022-09-16T05:06:49.865Z,99662.59
2022-09-16T05:09:22.913Z,99661.58
2022-09-16T05:11:54.908Z,99662.00
2022-09-16T05:14:26.730Z,99656.39
2022-09-16T05:16:58.591Z,99660.17
2022-09-16T05:19:30.599Z,99658.98
2022-09-16T05:22:07.028Z,99659.71
2022-09-16T05:24:38.913Z,99660.48
2022-09-16T05:27:10.918Z,99660.08
2022-09-16T05:29:43.212Z,99669.85
2022-09-16T05:32:15.045Z,99667.13
2022-09-16T05:34:47.264Z,99670.23
2022-09-16T05:37:19.227Z,99670.19
2022-09-16T05:39:51.050Z,99669.59
2022-09-16T05:42:23.075Z,99667.05
2022-09-16T05:44:55.084Z,99665.48
2022-09-16T05:47:27.570Z,99667.34
2022-09-16T05:49:59.426Z,99665.71
2022-09-16T05:52:31.163Z,99667.79
2022-09-16T05:55:06.477Z,99667.55
2022-09-16T05:57:38.358Z,99669.00
2022-09-16T06:00:14.579Z,99664.79
2022-09-16T06:02:48.315Z,99660.74
2022-09-16T06:05:20.402Z,99666.39
2022-09-16T06:07:52.214Z,99667.95
2022-09-16T06:10:24.048Z,99668.34
2022-09-16T06:12:55.981Z,99667.47
2022-09-16T06:15:27.809Z,99663.98
2022-09-16T06:18:04.184Z,99664.14
2022-09-16T06:20:39.424Z,99658.72
2022-09-16T06:23:11.552Z,99655.21
2022-09-16T06:25:44.100Z,99649.23
2022-09-16T06:28:16.706Z,99653.52
2022-09-16T06:30:48.550Z,99649.01
2022-09-16T06:33:20.352Z,99654.66
2022-09-16T06:35:53.601Z,99652.71
2022-09-16T06:38:25.774Z,99653.28
2022-09-16T06:41:01.034Z,99654.20
2022-09-16T06:43:33.908Z,99650.05
2022-09-16T06:46:10.392Z,99647.62
2022-09-16T06:48:43.884Z,99643.75
2022-09-16T06:51:17.820Z,99645.70
2022-09-16T06:53:50.754Z,99642.55
2022-09-16T06:56:23.681Z,99641.73
2022-09-16T06:58:57.398Z,99644.29
2022-09-16T07:01:31.692Z,99643.13
2022-09-16T07:04:06.589Z,99642.50
2022-09-16T07:07:07.469Z,99641.56
2022-09-16T07:09:30.938Z,99639.62
2022-09-16T07:12:03.703Z,99642.30
2022-09-16T07:14:35.681Z,99642.13
2022-09-16T07:17:09.139Z,99643.23
2022-09-16T07:19:42.475Z,99644.88
2022-09-16T07:22:14.602Z,99640.77
2022-09-16T07:24:47.015Z,99642.05
2022-09-16T07:27:18.972Z,99642.45
2022-09-16T07:29:51.254Z,99650.04
2022-09-16T07:32:23.313Z,99647.34
2022-09-16T07:34:55.566Z,99649.67
2022-09-16T07:37:27.447Z,99652.05
2022-09-16T07:39:59.619Z,99655.61
2022-09-16T07:42:32.937Z,99654.79
2022-09-16T07:45:04.919Z,99653.73
2022-09-16T07:47:36.995Z,99648.46
2022-09-16T07:50:10.759Z,99654.05
2022-09-16T07:52:42.612Z,99657.45
2022-09-16T07:55:16.073Z,99656.60
2022-09-16T07:57:47.980Z,99659.14
2022-09-16T08:00:20.708Z,99650.14
2022-09-16T08:02:57.123Z,99657.51
2022-09-16T08:05:29.175Z,99661.05
2022-09-16T08:08:00.957Z,99659.77
2022-09-16T08:10:32.901Z,99663.71
2022-09-16T08:13:05.937Z,99664.27
2022-09-16T08:15:37.870Z,99665.82
2022-09-16T08:18:09.694Z,99665.63
2022-09-16T08:20:41.527Z,99670.60
2022-09-16T08:23:14.554Z,99668.48
2022-09-16T08:25:47.321Z,99667.61
2022-09-16T08:28:21.278Z,99669.58
2022-09-16T08:30:53.319Z,99668.86
2022-09-16T08:33:26.114Z,99665.30
2022-09-16T08:36:06.307Z,99666.38
2022-09-16T08:38:38.416Z,99661.70
2022-09-16T08:41:25.040Z,99660.21
2022-09-16T08:44:05.678Z,99656.67
2022-09-16T08:46:46.845Z,99649.13
2022-09-16T08:49:28.416Z,99656.95
2022-09-16T08:52:03.379Z,99657.58
2022-09-16T08:54:40.218Z,99661.33
2022-09-16T08:57:20.695Z,99664.00
2022-09-16T08:59:55.693Z,99661.63
2022-09-16T09:05:26.657Z,99656.34
2022-09-16T09:08:13.525Z,99660.70
2022-09-16T09:10:53.724Z,99660.48
2022-09-16T09:13:39.942Z,99656.59
2022-09-16T09:16:22.778Z,99657.15
2022-09-16T09:19:05.138Z,99654.56
2022-09-16T09:21:46.870Z,99648.24
2022-09-16T09:24:45.161Z,99643.63
2022-09-16T09:27:27.713Z,99638.59
2022-09-16T09:30:09.836Z,99643.86
2022-09-16T09:33:03.702Z,99644.85
2022-09-16T09:35:50.427Z,99645.69
2022-09-16T09:39:04.410Z,99648.96
2022-09-16T09:41:41.141Z,99645.45
2022-09-16T09:44:29.678Z,99638.98
2022-09-16T09:47:06.482Z,99640.73
2022-09-16T09:49:42.336Z,99640.24
2022-09-16T09:52:20.928Z,99641.83
2022-09-16T09:54:54.281Z,99643.05
2022-09-16T09:57:33.452Z,99639.92
2022-09-16T10:00:13.321Z,99640.75
2022-09-16T10:02:49.922Z,99638.85
2022-09-16T10:05:26.680Z,99638.67
2022-09-16T10:08:16.407Z,99639.80
2022-09-16T10:10:52.773Z,99636.38
2022-09-16T10:13:26.801Z,99641.83
2022-09-16T10:16:11.431Z,99638.63
2022-09-16T10:18:43.563Z,99633.27
2022-09-16T10:21:18.209Z,99630.86
2022-09-16T10:23:58.570Z,99627.65
2022-09-16T10:26:31.213Z,99623.92
2022-09-16T10:29:12.827Z,99613.77
2022-09-16T10:31:45.263Z,99623.19
2022-09-16T10:34:23.917Z,99625.89
2022-09-16T10:37:06.101Z,99626.57
2022-09-16T10:39:38.957Z,99629.92
2022-09-16T10:42:20.945Z,99638.91
2022-09-16T10:44:55.082Z,99637.19
2022-09-16T10:47:30.530Z,99633.17
2022-09-16T10:50:05.357Z,99632.10
2022-09-16T10:52:45.369Z,99632.09
2022-09-16T10:55:29.607Z,99634.48
2022-09-16T10:58:15.841Z,99643.04
2022-09-16T11:00:58.636Z,99644.35
2022-09-16T11:04:01.457Z,99648.91
2022-09-16T11:06:45.306Z,99647.88
2022-09-16T11:09:27.317Z,99641.95
2022-09-16T11:12:27.898Z,99645.93
2022-09-16T11:15:10.136Z,99649.68
2022-09-16T11:17:58.273Z,99647.60
2022-09-16T11:20:52.045Z,99646.17
2022-09-16T11:23:42.412Z,99642.92
2022-09-16T11:26:24.739Z,99643.52
2022-09-16T11:29:15.539Z,99639.76
2022-09-16T11:32:01.421Z,99643.94
2022-09-16T11:34:49.668Z,99643.77
2022-09-16T11:37:27.143Z,99642.39
2022-09-16T11:40:16.826Z,99642.57
2022-09-16T11:42:56.530Z,99634.33
2022-09-16T11:45:43.755Z,99633.64
2022-09-16T11:48:32.870Z,99632.02
2022-09-16T11:51:12.967Z,99626.95
2022-09-16T11:53:59.492Z,99629.27
2022-09-16T11:56:38.989Z,99626.30
2022-09-16T11:59:19.001Z,99619.21
2022-09-16T12:01:56.148Z,99612.44
2022-09-16T12:04:34.983Z,99609.45
2022-09-16T12:07:19.089Z,99609.58
2022-09-16T12:09:57.043Z,99605.74
2022-09-16T12:12:38.667Z,99604.91
2022-09-16T12:15:22.574Z,99601.34
2022-09-16T12:17:57.817Z,99602.50
2022-09-16T12:20:34.524Z,99603.26
2022-09-16T12:23:18.674Z,99607.30
2022-09-16T12:26:06.538Z,99590.80
2022-09-16T12:28:46.156Z,99591.67
2022-09-16T12:31:33.897Z,99586.23
2022-09-16T12:34:13.219Z,99589.55
2022-09-16T12:36:50.935Z,99590.40
2022-09-16T12:39:22.840Z,99587.50
2022-09-16T12:42:25.609Z,99587.86
2022-09-16T12:45:21.846Z,99580.23
2022-09-16T12:48:12.506Z,99579.54
2022-09-16T12:51:01.471Z,99574.19
2022-09-16T12:54:09.667Z,99567.11
2022-09-16T12:56:56.190Z,99568.75
2022-09-16T12:59:52.431Z,99574.13
2022-09-16T13:02:29.863Z,99571.17
2022-09-16T13:05:14.629Z,99575.52
2022-09-16T13:07:54.403Z,99571.98
2022-09-16T13:10:54.032Z,99570.97
2022-09-16T13:13:31.261Z,99565.14
2022-09-16T13:16:06.506Z,99564.97
2022-09-16T13:18:47.637Z,99566.85
2022-09-16T13:21:28.168Z,99563.39
2022-09-16T13:24:05.598Z,99560.90
2022-09-16T13:26:45.448Z,99553.83
2022-09-16T13:29:44.898Z,99549.61
2022-09-16T13:32:39.770Z,99549.77
2022-09-16T13:35:37.796Z,99546.14
2022-09-16T13:38:39.776Z,99543.50
2022-09-16T13:41:14.392Z,99544.00
2022-09-16T13:43:55.938Z,99547.16
2022-09-16T13:46:37.986Z,99535.42
2022-09-16T13:49:23.916Z,99538.22
2022-09-16T13:51:56.118Z,99538.23
2022-09-16T13:54:47.986Z,99531.66
2022-09-16T13:57:43.364Z,99525.84
2022-09-16T14:00:19.874Z,99525.71
2022-09-16T14:03:18.131Z,99520.10
2022-09-16T14:06:11.430Z,99517.23
2022-09-16T14:08:53.941Z,99524.86
2022-09-16T14:11:34.390Z,99529.65
2022-09-16T14:14:19.762Z,99527.66
2022-09-16T14:17:06.614Z,99534.77
2022-09-16T14:19:41.267Z,99530.65
2022-09-16T14:22:21.712Z,99533.97
2022-09-16T14:25:05.777Z,99533.20
2022-09-16T14:27:40.207Z,99536.16
2022-09-16T14:30:19.005Z,99536.17
2022-09-16T14:32:51.556Z,99532.45
2022-09-16T14:35:27.226Z,99531.40
2022-09-16T14:40:49.798Z,99530.95
2022-09-16T14:43:24.138Z,99532.06
2022-09-16T14:46:01.486Z,99529.61
2022-09-16T14:48:39.882Z,99529.39
2022-09-16T14:51:21.867Z,99533.07
2022-09-16T14:54:15.560Z,99534.10
2022-09-16T14:56:57.870Z,99535.30
2022-09-16T14:59:32.305Z,99541.08
2022-09-16T15:02:09.471Z,99541.52
2022-09-16T15:04:45.487Z,99544.04
2022-09-16T15:07:25.923Z,99543.20
2022-09-16T15:10:02.312Z,99542.78
2022-09-16T15:12:36.976Z,99548.98
2022-09-16T15:15:21.000Z,99548.45
2022-09-16T15:17:58.623Z,99550.63
2022-09-16T15:20:33.902Z,99547.60
2022-09-16T15:23:12.253Z,99547.89
2022-09-16T15:25:55.247Z,99546.55
2022-09-16T15:28:27.424Z,99549.98
2022-09-16T15:30:59.630Z,99543.31
2022-09-16T15:33:42.736Z,99543.54
2022-09-16T15:36:36.244Z,99542.89
2022-09-16T15:39:23.831Z,99549.48
2022-09-16T15:42:12.244Z,99549.41
2022-09-16T15:44:50.126Z,99548.77
2022-09-16T15:47:25.685Z,99546.58
2022-09-16T15:50:04.146Z,99551.66
2022-09-16T15:52:51.335Z,99553.41
2022-09-16T15:55:36.427Z,99552.86
2022-09-16T15:58:14.700Z,99549.73
2022-09-16T16:01:07.028Z,99553.17
2022-09-16T16:03:53.817Z,99555.55
2022-09-16T16:06:47.480Z,99554.35
2022-09-16T16:09:48.975Z,99549.63
2022-09-16T16:12:21.844Z,99551.45
2022-09-16T16:14:55.164Z,99549.92
2022-09-16T16:17:28.631Z,99545.52
2022-09-16T16:20:00.902Z,99545.26
2022-09-16T16:22:33.382Z,99546.91
2022-09-16T16:25:05.512Z,99547.85
2022-09-16T16:27:37.719Z,99552.15
2022-09-16T16:30:11.171Z,99554.11
2022-09-16T16:32:43.752Z,99553.41
2022-09-16T16:35:16.021Z,99555.58
2022-09-16T16:37:48.152Z,99559.87
2022-09-16T16:40:20.616Z,99562.75
2022-09-16T16:42:52.498Z,99564.94
2022-09-16T16:45:24.649Z,99568.89
2022-09-16T16:47:56.937Z,99567.56
2022-09-16T16:50:28.868Z,99573.83
2022-09-16T16:53:00.919Z,99568.37
2022-09-16T16:55:34.171Z,99566.35
2022-09-16T16:58:06.012Z,99562.01
2022-09-16T17:00:38.038Z,99562.14
2022-09-16T17:03:09.942Z,99562.58
2022-09-16T17:05:42.313Z,99564.99
2022-09-16T17:08:14.190Z,99565.40
2022-09-16T17:10:46.949Z,99568.83
2022-09-16T17:13:19.328Z,99565.60
2022-09-16T17:15:53.488Z,99566.88
2022-09-16T17:18:25.662Z,99560.84
2022-09-16T17:21:04.181Z,99557.84
2022-09-16T17:23:36.534Z,99561.20
2022-09-16T17:26:10.203Z,99558.33
2022-09-16T17:28:44.887Z,99563.98
2022-09-16T17:31:20.225Z,99569.59
2022-09-16T17:33:53.950Z,99568.66
2022-09-16T17:36:27.312Z,99568.09
2022-09-16T17:39:00.957Z,99571.42
2022-09-16T17:41:33.723Z,99570.18
2022-09-16T17:44:08.670Z,99575.71
2022-09-16T17:46:41.508Z,99574.86
2022-09-16T17:49:18.326Z,99577.55
2022-09-16T17:51:51.364Z,99576.71
2022-09-16T17:54:23.967Z,99579.59
2022-09-16T17:56:55.931Z,99579.96
2022-09-16T17:59:27.769Z,99579.67
2022-09-16T18:01:59.743Z,99584.18
2022-09-16T18:04:33.098Z,99581.56
2022-09-16T18:07:05.059Z,99577.91
2022-09-16T18:09:37.300Z,99575.73
2022-09-16T18:12:17.249Z,99578.14
2022-09-16T18:14:49.739Z,99576.65
2022-09-16T18:17:22.175Z,99578.57
2022-09-16T18:19:55.168Z,99577.67
2022-09-16T18:22:27.375Z,99577.13
2022-09-16T18:24:59.356Z,99575.89
2022-09-16T18:27:31.302Z,99581.03
2022-09-16T18:30:03.378Z,99579.63
2022-09-16T18:32:35.728Z,99579.77
2022-09-16T18:35:09.115Z,99579.41
2022-09-16T18:37:41.157Z,99578.71
2022-09-16T18:40:13.840Z,99576.42
2022-09-16T18:42:45.836Z,99581.00
2022-09-16T18:45:17.937Z,99586.29
2022-09-16T18:47:49.861Z,99583.11
2022-09-16T18:50:22.130Z,99583.48
2022-09-16T18:52:57.243Z,99586.65
2022-09-16T18:55:29.280Z,99585.05
2022-09-16T18:58:02.515Z,99584.31
2022-09-16T19:00:35.488Z,99586.23
2022-09-16T19:03:07.943Z,99583.92
2022-09-16T19:05:40.172Z,99584.40
2022-09-16T19:08:14.642Z,99584.48
2022-09-16T19:10:46.836Z,99586.66
2022-09-16T19:13:22.111Z,99587.96
2022-09-16T19:15:59.048Z,99590.17
2022-09-16T19:18:31.276Z,99588.50
2022-09-16T19:21:06.054Z,99589.99
2022-09-16T19:23:38.255Z,99584.04
2022-09-16T19:26:10.383Z,99588.35
2022-09-16T19:28:42.856Z,99586.65
2022-09-16T19:31:15.822Z,99583.55
2022-09-16T19:33:47.758Z,99580.11
2022-09-16T19:36:22.258Z,99582.52
2022-09-16T19:42:13.977Z,99579.20
2022-09-16T19:44:45.791Z,99577.95
2022-09-16T19:47:20.630Z,99574.23
2022-09-16T19:49:52.804Z,99572.80
2022-09-16T19:52:25.218Z,99575.08
2022-09-16T19:54:57.726Z,99574.16
2022-09-16T19:57:29.618Z,99572.37
2022-09-16T20:00:01.866Z,99571.45
2022-09-16T20:02:46.654Z,99569.39
2022-09-16T20:05:21.238Z,99572.48
2022-09-16T20:07:53.310Z,99569.35
2022-09-16T20:10:25.846Z,99574.89
2022-09-16T20:12:59.467Z,99574.35
2022-09-16T20:15:31.519Z,99575.68
2022-09-16T20:18:03.746Z,99573.46
2022-09-16T20:20:36.112Z,99572.30
2022-09-16T20:26:12.307Z,99571.71
2022-09-16T20:28:45.175Z,99574.23
2022-09-16T20:31:18.337Z,99575.34
2022-09-16T20:33:51.793Z,99579.09
2022-09-16T20:36:26.010Z,99578.26
2022-09-16T20:38:59.677Z,99582.58
2022-09-16T20:41:33.667Z,99586.34
2022-09-16T20:44:07.032Z,99587.13
2022-09-16T20:46:39.772Z,99591.62
2022-09-16T20:49:15.984Z,99594.16
2022-09-16T20:51:48.128Z,99591.74
2022-09-16T20:54:20.436Z,99599.61
2022-09-16T20:56:52.305Z,99601.92
2022-09-16T20:59:24.103Z,99602.95
2022-09-16T21:01:57.545Z,99603.91
2022-09-16T21:04:29.550Z,99602.73
2022-09-16T21:07:01.377Z,99600.11
2022-09-16T21:09:33.317Z,99602.67
2022-09-16T21:12:07.428Z,99598.69
2022-09-16T21:14:40.531Z,99604.23
2022-09-16T21:17:12.390Z,99600.76
2022-09-16T21:19:44.269Z,99600.63
2022-09-16T21:22:16.180Z,99597.19
2022-09-16T21:24:49.213Z,99600.66
2022-09-16T21:27:21.072Z,99600.66
2022-09-16T21:29:52.969Z,99596.80
2022-09-16T21:32:25.059Z,99597.02
2022-09-16T21:34:58.071Z,99594.75
2022-09-16T21:37:29.983Z,99595.85
2022-09-16T21:40:02.065Z,99598.02
2022-09-16T21:42:35.240Z,99595.34
2022-09-16T21:45:08.747Z,99596.39
2022-09-16T21:47:40.632Z,99595.77
2022-09-16T21:50:12.849Z,99602.03
2022-09-16T21:52:45.226Z,99601.63
2022-09-16T21:55:17.260Z,99602.78
2022-09-16T21:57:50.788Z,99606.58
2022-09-16T22:00:22.724Z,99607.52
2022-09-16T22:02:56.669Z,99604.95
2022-09-16T22:05:28.750Z,99605.59
2022-09-16T22:08:01.703Z,99601.80
2022-09-16T22:10:33.628Z,99596.40
2022-09-16T22:13:05.476Z,99588.75
2022-09-16T22:15:37.363Z,99586.55
2022-09-16T22:18:09.214Z,99589.84
2022-09-16T22:20:41.004Z,99588.89
2022-09-16T22:23:13.000Z,99588.45
2022-09-16T22:25:45.379Z,99589.13
2022-09-16T22:28:17.550Z,99583.95
2022-09-16T22:30:51.111Z,99587.95
2022-09-16T22:33:22.963Z,99582.08
2022-09-16T22:35:54.785Z,99582.21
2022-09-16T22:38:26.920Z,99584.60
2022-09-16T22:41:02.966Z,99585.63
2022-09-16T22:43:39.051Z,99580.66
2022-09-16T22:46:12.585Z,99577.49
2022-09-16T22:48:45.065Z,99576.48
2022-09-16T22:51:18.665Z,99575.95
2022-09-16T22:53:50.870Z,99570.58
2022-09-16T22:56:25.177Z,99568.68
2022-09-16T22:58:58.192Z,99568.25
2022-09-16T23:01:32.953Z,99567.98
2022-09-16T23:04:06.374Z,99563.90
2022-09-16T23:06:39.609Z,99562.08
2022-09-16T23:09:13.580Z,99563.23
2022-09-16T23:11:46.625Z,99559.63
2022-09-16T23:14:26.359Z,99555.49
2022-09-16T23:16:58.227Z,99552.74
2022-09-16T23:19:30.058Z,99547.19
2022-09-16T23:22:01.827Z,99548.14
2022-09-16T23:24:33.643Z,99544.13
2022-09-16T23:27:06.153Z,99548.17
2022-09-16T23:29:38.031Z,99549.58
2022-09-16T23:32:10.006Z,99548.43
2022-09-16T23:34:42.349Z,99548.19
2022-09-16T23:37:14.165Z,99547.75
2022-09-16T23:39:45.948Z,99549.77
2022-09-16T23:42:18.079Z,99548.98
2022-09-16T23:44:50.053Z,99547.27
2022-09-16T23:47:22.817Z,99552.10
2022-09-16T23:49:54.582Z,99550.02
2022-09-16T23:52:26.570Z,99553.41
2022-09-16T23:54:58.300Z,99556.64
2022-09-16T23:57:30.105Z,99555.29
